sensor_id;sensor_type;location;lat;lon;timestamp;pressure;altitude;pressure_sealevel;temperature;humidity
49122;BME280;35529;44.342;25.944;2022-10-16T00:00:57;101593.59;;;7.27;100.00
49122;BME280;35529;44.342;25.944;2022-10-16T00:03:23;101598.97;;;7.35;100.00
49122;BME280;35529;44.342;25.944;2022-10-16T00:05:49;101603.53;;;7.43;100.00
49122;BME280;35529;44.342;25.944;2022-10-16T00:08:15;101597.66;;;7.49;100.00
49122;BME280;35529;44.342;25.944;2022-10-16T00:10:41;101596.44;;;7.43;100.00
49122;BME280;35529;44.342;25.944;2022-10-16T00:13:08;101602.75;;;7.32;100.00
49122;BME280;35529;44.342;25.944;2022-10-16T00:15:35;101598.75;;;7.28;100.00
49122;BME280;35529;44.342;25.944;2022-10-16T00:18:03;101604.41;;;7.33;100.00
49122;BME280;35529;44.342;25.944;2022-10-16T00:20:35;101604.97;;;7.37;100.00
49122;BME280;35529;44.342;25.944;2022-10-16T00:23:04;101603.84;;;7.40;100.00
49122;BME280;35529;44.342;25.944;2022-10-16T00:25:31;101608.81;;;7.43;100.00
49122;BME280;35529;44.342;25.944;2022-10-16T00:27:59;101602.72;;;7.42;100.00
49122;BME280;35529;44.342;25.944;2022-10-16T00:30:25;101611.38;;;7.34;100.00
49122;BME280;35529;44.342;25.944;2022-10-16T00:32:53;101610.28;;;7.27;100.00
49122;BME280;35529;44.342;25.944;2022-10-16T00:35:19;101617.13;;;7.20;100.00
49122;BME280;35529;44.342;25.944;2022-10-16T00:37:46;101610.44;;;6.88;100.00
49122;BME280;35529;44.342;25.944;2022-10-16T00:40:15;101613.31;;;6.57;100.00
49122;BME280;35529;44.342;25.944;2022-10-16T00:42:41;101607.19;;;6.47;100.00
49122;BME280;35529;44.342;25.944;2022-10-16T00:45:16;101612.47;;;6.47;100.00
49122;BME280;35529;44.342;25.944;2022-10-16T00:47:43;101621.13;;;6.39;100.00
49122;BME280;35529;44.342;25.944;2022-10-16T00:50:26;101615.00;;;6.38;100.00
49122;BME280;35529;44.342;25.944;2022-10-16T00:52:53;101615.00;;;6.38;100.00
49122;BME280;35529;44.342;25.944;2022-10-16T00:55:20;101613.31;;;6.37;100.00
49122;BME280;35529;44.342;25.944;2022-10-16T00:57:47;101593.88;;;6.38;100.00
49122;BME280;35529;44.342;25.944;2022-10-16T01:00:15;101601.53;;;6.42;100.00
49122;BME280;35529;44.342;25.944;2022-10-16T01:02:42;101589.19;;;6.42;100.00
49122;BME280;35529;44.342;25.944;2022-10-16T01:05:08;101596.53;;;6.48;100.00
49122;BME280;35529;44.342;25.944;2022-10-16T01:07:56;101599.44;;;6.55;100.00
49122;BME280;35529;44.342;25.944;2022-10-16T01:10:46;101592.75;;;6.61;100.00
49122;BME280;35529;44.342;25.944;2022-10-16T01:13:20;101598.56;;;6.64;100.00
49122;BME280;35529;44.342;25.944;2022-10-16T01:18:22;101599.97;;;6.68;100.00
49122;BME280;35529;44.342;25.944;2022-10-16T01:20:52;101612.88;;;6.71;100.00
49122;BME280;35529;44.342;25.944;2022-10-16T01:28:47;101619.66;;;6.64;100.00
49122;BME280;35529;44.342;25.944;2022-10-16T01:31:11;101613.31;;;6.57;100.00
49122;BME280;35529;44.342;25.944;2022-10-16T01:33:42;101621.38;;;6.56;100.00
49122;BME280;35529;44.342;25.944;2022-10-16T01:36:12;101620.53;;;6.55;100.00
49122;BME280;35529;44.342;25.944;2022-10-16T01:38:39;101617.22;;;6.53;100.00
49122;BME280;35529;44.342;25.944;2022-10-16T01:41:14;101621.09;;;6.49;100.00
49122;BME280;35529;44.342;25.944;2022-10-16T01:43:43;101626.66;;;6.46;100.00
49122;BME280;35529;44.342;25.944;2022-10-16T01:46:12;101623.47;;;6.42;100.00
49122;BME280;35529;44.342;25.944;2022-10-16T01:48:39;101620.97;;;6.41;100.00
49122;BME280;35529;44.342;25.944;2022-10-16T01:51:09;101629.03;;;6.39;100.00
49122;BME280;35529;44.342;25.944;2022-10-16T01:53:40;101627.22;;;6.40;100.00
49122;BME280;35529;44.342;25.944;2022-10-16T01:56:08;101639.44;;;6.41;100.00
49122;BME280;35529;44.342;25.944;2022-10-16T01:58:37;101632.06;;;6.34;100.00
49122;BME280;35529;44.342;25.944;2022-10-16T02:01:04;101642.50;;;6.26;100.00
49122;BME280;35529;44.342;25.944;2022-10-16T02:03:35;101637.22;;;6.16;100.00
49122;BME280;35529;44.342;25.944;2022-10-16T02:06:02;101634.47;;;6.08;100.00
49122;BME280;35529;44.342;25.944;2022-10-16T02:08:28;101646.22;;;6.04;100.00
49122;BME280;35529;44.342;25.944;2022-10-16T02:10:56;101642.78;;;6.03;100.00
49122;BME280;35529;44.342;25.944;2022-10-16T02:13:28;101646.13;;;6.06;100.00
49122;BME280;35529;44.342;25.944;2022-10-16T02:15:56;101650.00;;;6.11;100.00
49122;BME280;35529;44.342;25.944;2022-10-16T02:18:22;101649.16;;;6.11;100.00
49122;BME280;35529;44.342;25.944;2022-10-16T02:21:49;101654.16;;;6.14;100.00
49122;BME280;35529;44.342;25.944;2022-10-16T02:26:17;101654.16;;;6.24;100.00
49122;BME280;35529;44.342;25.944;2022-10-16T02:28:45;101649.97;;;6.31;100.00
49122;BME280;35529;44.342;25.944;2022-10-16T02:31:18;101651.25;;;6.36;100.00
49122;BME280;35529;44.342;25.944;2022-10-16T02:33:47;101666.09;;;6.37;100.00
49122;BME280;35529;44.342;25.944;2022-10-16T02:36:15;101656.25;;;6.40;100.00
49122;BME280;35529;44.342;25.944;2022-10-16T02:38:41;101655.28;;;6.41;100.00
49122;BME280;35529;44.342;25.944;2022-10-16T02:41:07;101660.25;;;6.44;100.00
49122;BME280;35529;44.342;25.944;2022-10-16T02:43:33;101660.13;;;6.45;100.00
49122;BME280;35529;44.342;25.944;2022-10-16T02:46:00;101659.28;;;6.45;100.00
49122;BME280;35529;44.342;25.944;2022-10-16T02:48:26;101668.19;;;6.44;100.00
49122;BME280;35529;44.342;25.944;2022-10-16T02:50:52;101662.22;;;6.42;100.00
49122;BME280;35529;44.342;25.944;2022-10-16T02:53:18;101662.22;;;6.42;100.00
49122;BME280;35529;44.342;25.944;2022-10-16T02:55:44;101664.72;;;6.43;100.00
49122;BME280;35529;44.342;25.944;2022-10-16T02:58:10;101672.63;;;6.43;100.00
49122;BME280;35529;44.342;25.944;2022-10-16T03:00:36;101668.47;;;6.41;100.00
49122;BME280;35529;44.342;25.944;2022-10-16T03:03:02;101667.75;;;6.38;100.00
49122;BME280;35529;44.342;25.944;2022-10-16T03:05:29;101676.78;;;6.36;100.00
49122;BME280;35529;44.342;25.944;2022-10-16T03:07:55;101674.56;;;6.31;100.00
49122;BME280;35529;44.342;25.944;2022-10-16T03:10:21;101679.13;;;6.29;100.00
49122;BME280;35529;44.342;25.944;2022-10-16T03:12:47;101673.19;;;6.27;100.00
49122;BME280;35529;44.342;25.944;2022-10-16T03:15:13;101673.44;;;6.24;100.00
49122;BME280;35529;44.342;25.944;2022-10-16T03:17:39;101682.50;;;6.22;100.00
49122;BME280;35529;44.342;25.944;2022-10-16T03:20:05;101682.06;;;6.16;100.00
49122;BME280;35529;44.342;25.944;2022-10-16T03:22:32;101680.25;;;6.07;100.00
49122;BME280;35529;44.342;25.944;2022-10-16T03:24:58;101683.28;;;6.02;100.00
49122;BME280;35529;44.342;25.944;2022-10-16T03:27:24;101684.63;;;5.97;100.00
49122;BME280;35529;44.342;25.944;2022-10-16T03:29:50;101688.09;;;5.87;100.00
49122;BME280;35529;44.342;25.944;2022-10-16T03:32:16;101689.59;;;5.80;100.00
49122;BME280;35529;44.342;25.944;2022-10-16T03:34:42;101690.78;;;5.66;100.00
49122;BME280;35529;44.342;25.944;2022-10-16T03:37:08;101687.69;;;5.51;100.00
49122;BME280;35529;44.342;25.944;2022-10-16T03:39:34;101685.03;;;5.42;100.00
49122;BME280;35529;44.342;25.944;2022-10-16T03:42:00;101681.00;;;5.37;100.00
49122;BME280;35529;44.342;25.944;2022-10-16T03:44:26;101666.75;;;5.40;100.00
49122;BME280;35529;44.342;25.944;2022-10-16T03:46:52;101670.06;;;5.42;100.00
49122;BME280;35529;44.342;25.944;2022-10-16T03:49:18;101677.56;;;5.47;100.00
49122;BME280;35529;44.342;25.944;2022-10-16T03:51:44;101684.25;;;5.51;100.00
49122;BME280;35529;44.342;25.944;2022-10-16T03:54:11;101684.94;;;5.53;100.00
49122;BME280;35529;44.342;25.944;2022-10-16T03:56:37;101686.16;;;5.49;100.00
49122;BME280;35529;44.342;25.944;2022-10-16T03:59:03;101685.03;;;5.42;100.00
49122;BME280;35529;44.342;25.944;2022-10-16T04:01:29;101680.59;;;5.42;100.00
49122;BME280;35529;44.342;25.944;2022-10-16T04:03:55;101681.88;;;5.48;100.00
49122;BME280;35529;44.342;25.944;2022-10-16T04:06:21;101685.19;;;5.50;100.00
49122;BME280;35529;44.342;25.944;2022-10-16T04:08:48;101693.53;;;5.55;100.00
49122;BME280;35529;44.342;25.944;2022-10-16T04:11:14;101696.19;;;5.55;100.00
49122;BME280;35529;44.342;25.944;2022-10-16T04:13:40;101700.34;;;5.58;100.00
49122;BME280;35529;44.342;25.944;2022-10-16T04:16:07;101697.84;;;5.56;100.00
49122;BME280;35529;44.342;25.944;2022-10-16T04:18:33;101698.94;;;5.53;100.00
49122;BME280;35529;44.342;25.944;2022-10-16T04:21:03;101695.47;;;5.53;100.00
49122;BME280;35529;44.342;25.944;2022-10-16T04:23:29;101701.44;;;5.55;100.00
49122;BME280;35529;44.342;25.944;2022-10-16T04:25:55;101698.69;;;5.57;100.00
49122;BME280;35529;44.342;25.944;2022-10-16T04:28:21;101704.09;;;5.55;100.00
49122;BME280;35529;44.342;25.944;2022-10-16T04:30:47;101705.03;;;5.54;100.00
49122;BME280;35529;44.342;25.944;2022-10-16T04:33:13;101700.06;;;5.51;100.00
49122;BME280;35529;44.342;25.944;2022-10-16T04:35:39;101703.66;;;5.50;100.00
49122;BME280;35529;44.342;25.944;2022-10-16T04:38:05;101700.31;;;5.48;100.00
49122;BME280;35529;44.342;25.944;2022-10-16T04:40:31;101705.31;;;5.51;100.00
49122;BME280;35529;44.342;25.944;2022-10-16T04:43:03;101704.47;;;5.50;100.00
49122;BME280;35529;44.342;25.944;2022-10-16T04:45:29;101716.81;;;5.50;100.00
49122;BME280;35529;44.342;25.944;2022-10-16T04:47:58;101718.63;;;5.49;100.00
49122;BME280;35529;44.342;25.944;2022-10-16T04:50:25;101726.66;;;5.48;100.00
49122;BME280;35529;44.342;25.944;2022-10-16T04:52:51;101730.00;;;5.50;100.00
49122;BME280;35529;44.342;25.944;2022-10-16T04:55:17;101731.53;;;5.52;100.00
49122;BME280;35529;44.342;25.944;2022-10-16T04:57:43;101736.94;;;5.51;100.00
49122;BME280;35529;44.342;25.944;2022-10-16T05:00:09;101741.75;;;5.46;100.00
49122;BME280;35529;44.342;25.944;2022-10-16T05:02:35;101747.47;;;5.51;100.00
49122;BME280;35529;44.342;25.944;2022-10-16T05:05:02;101749.44;;;5.59;100.00
49122;BME280;35529;44.342;25.944;2022-10-16T05:07:28;101747.81;;;5.67;100.00
49122;BME280;35529;44.342;25.944;2022-10-16T05:09:54;101742.56;;;5.77;100.00
49122;BME280;35529;44.342;25.944;2022-10-16T05:12:20;101752.19;;;5.88;100.00
49122;BME280;35529;44.342;25.944;2022-10-16T05:14:46;101757.63;;;5.96;100.00
49122;BME280;35529;44.342;25.944;2022-10-16T05:17:12;101762.50;;;6.01;100.00
49122;BME280;35529;44.342;25.944;2022-10-16T05:19:38;101760.31;;;6.06;100.00
49122;BME280;35529;44.342;25.944;2022-10-16T05:22:04;101764.91;;;6.14;100.00
49122;BME280;35529;44.342;25.944;2022-10-16T05:24:30;101771.03;;;6.24;100.00
49122;BME280;35529;44.342;25.944;2022-10-16T05:26:56;101774.94;;;6.40;100.00
49122;BME280;35529;44.342;25.944;2022-10-16T05:29:23;101780.94;;;6.51;100.00
49122;BME280;35529;44.342;25.944;2022-10-16T05:31:52;101776.38;;;6.63;100.00
49122;BME280;35529;44.342;25.944;2022-10-16T05:34:19;101786.78;;;6.75;100.00
49122;BME280;35529;44.342;25.944;2022-10-16T05:36:45;101786.66;;;6.86;100.00
49122;BME280;35529;44.342;25.944;2022-10-16T05:39:11;101785.53;;;6.98;100.00
49122;BME280;35529;44.342;25.944;2022-10-16T05:41:37;101785.50;;;7.08;100.00
49122;BME280;35529;44.342;25.944;2022-10-16T05:44:04;101791.63;;;7.18;100.00
49122;BME280;35529;44.342;25.944;2022-10-16T05:46:30;101802.16;;;7.28;100.00
49122;BME280;35529;44.342;25.944;2022-10-16T05:48:56;101797.56;;;7.40;100.00
49122;BME280;35529;44.342;25.944;2022-10-16T05:51:22;101802.94;;;7.48;100.00
49122;BME280;35529;44.342;25.944;2022-10-16T05:53:48;101806.56;;;7.57;100.00
49122;BME280;35529;44.342;25.944;2022-10-16T05:56:14;101808.34;;;7.66;100.00
49122;BME280;35529;44.342;25.944;2022-10-16T05:58:40;101802.03;;;7.77;100.00
49122;BME280;35529;44.342;25.944;2022-10-16T06:01:09;101807.28;;;7.87;100.00
49122;BME280;35529;44.342;25.944;2022-10-16T06:03:35;101812.91;;;8.02;100.00
49122;BME280;35529;44.342;25.944;2022-10-16T06:06:15;101813.41;;;8.15;100.00
49122;BME280;35529;44.342;25.944;2022-10-16T06:08:42;101822.69;;;8.29;100.00
49122;BME280;35529;44.342;25.944;2022-10-16T06:11:10;101836.13;;;8.46;100.00
49122;BME280;35529;44.342;25.944;2022-10-16T06:13:36;101831.59;;;8.56;100.00
49122;BME280;35529;44.342;25.944;2022-10-16T06:16:03;101830.25;;;8.70;100.00
49122;BME280;35529;44.342;25.944;2022-10-16T06:18:29;101835.19;;;8.83;100.00
49122;BME280;35529;44.342;25.944;2022-10-16T06:20:55;101834.94;;;8.94;100.00
49122;BME280;35529;44.342;25.944;2022-10-16T06:23:22;101837.22;;;9.07;100.00
49122;BME280;35529;44.342;25.944;2022-10-16T06:25:51;101832.63;;;9.17;100.00
49122;BME280;35529;44.342;25.944;2022-10-16T06:28:18;101833.06;;;9.31;100.00
49122;BME280;35529;44.342;25.944;2022-10-16T06:30:44;101830.19;;;9.42;100.00
49122;BME280;35529;44.342;25.944;2022-10-16T06:33:13;101830.06;;;9.52;100.00
49122;BME280;35529;44.342;25.944;2022-10-16T06:35:39;101837.63;;;9.65;100.00
49122;BME280;35529;44.342;25.944;2022-10-16T06:38:05;101838.19;;;9.77;100.00
49122;BME280;35529;44.342;25.944;2022-10-16T06:40:31;101836.22;;;9.87;100.00
49122;BME280;35529;44.342;25.944;2022-10-16T06:42:58;101835.97;;;9.98;100.00
49122;BME280;35529;44.342;25.944;2022-10-16T06:45:24;101835.50;;;10.11;100.00
49122;BME280;35529;44.342;25.944;2022-10-16T06:47:53;101845.69;;;10.24;100.00
49122;BME280;35529;44.342;25.944;2022-10-16T06:50:19;101850.03;;;10.33;100.00
49122;BME280;35529;44.342;25.944;2022-10-16T06:52:45;101848.25;;;10.42;100.00
49122;BME280;35529;44.342;25.944;2022-10-16T06:55:11;101843.63;;;10.52;100.00
49122;BME280;35529;44.342;25.944;2022-10-16T06:57:37;101847.81;;;10.63;100.00
49122;BME280;35529;44.342;25.944;2022-10-16T07:00:04;101842.19;;;10.75;100.00
49122;BME280;35529;44.342;25.944;2022-10-16T07:02:30;101841.06;;;10.85;100.00
49122;BME280;35529;44.342;25.944;2022-10-16T07:04:56;101836.56;;;10.94;100.00
49122;BME280;35529;44.342;25.944;2022-10-16T07:07:22;101835.41;;;11.05;100.00
49122;BME280;35529;44.342;25.944;2022-10-16T07:09:50;101846.19;;;11.36;100.00
49122;BME280;35529;44.342;25.944;2022-10-16T07:12:17;101845.19;;;11.46;100.00
49122;BME280;35529;44.342;25.944;2022-10-16T07:14:43;101847.34;;;11.50;100.00
49122;BME280;35529;44.342;25.944;2022-10-16T07:17:09;101847.66;;;11.55;100.00
49122;BME280;35529;44.342;25.944;2022-10-16T07:19:35;101857.09;;;11.74;100.00
49122;BME280;35529;44.342;25.944;2022-10-16T07:22:08;101860.38;;;12.01;100.00
49122;BME280;35529;44.342;25.944;2022-10-16T07:24:42;101864.94;;;12.24;100.00
49122;BME280;35529;44.342;25.944;2022-10-16T07:27:13;101854.56;;;12.37;100.00
49122;BME280;35529;44.342;25.944;2022-10-16T07:36:00;101848.84;;;12.49;100.00
49122;BME280;35529;44.342;25.944;2022-10-16T07:38:34;101847.00;;;12.49;100.00
49122;BME280;35529;44.342;25.944;2022-10-16T07:41:02;101842.59;;;12.65;100.00
49122;BME280;35529;44.342;25.944;2022-10-16T07:43:50;101851.06;;;12.68;100.00
49122;BME280;35529;44.342;25.944;2022-10-16T07:54:41;101835.91;;;12.92;100.00
49122;BME280;35529;44.342;25.944;2022-10-16T08:43:08;101855.06;;;14.38;98.15
49122;BME280;35529;44.342;25.944;2022-10-16T08:53:57;101852.63;;;14.22;99.25
49122;BME280;35529;44.342;25.944;2022-10-16T08:56:24;101851.50;;;14.31;99.75
49122;BME280;35529;44.342;25.944;2022-10-16T08:58:51;101853.53;;;14.44;100.00
49122;BME280;35529;44.342;25.944;2022-10-16T09:01:19;101849.44;;;14.63;100.00
49122;BME280;35529;44.342;25.944;2022-10-16T09:19:42;101843.13;;;14.93;97.77
49122;BME280;35529;44.342;25.944;2022-10-16T09:22:12;101844.84;;;15.00;97.02
49122;BME280;35529;44.342;25.944;2022-10-16T09:24:40;101849.97;;;15.23;97.82
49122;BME280;35529;44.342;25.944;2022-10-16T09:27:12;101842.41;;;15.27;95.13
49122;BME280;35529;44.342;25.944;2022-10-16T09:29:40;101842.63;;;15.32;94.98
49122;BME280;35529;44.342;25.944;2022-10-16T09:32:09;101837.31;;;15.39;95.01
49122;BME280;35529;44.342;25.944;2022-10-16T09:34:39;101841.09;;;15.45;94.72
49122;BME280;35529;44.342;25.944;2022-10-16T09:37:09;101836.56;;;15.45;93.99
49122;BME280;35529;44.342;25.944;2022-10-16T09:39:52;101847.06;;;15.47;93.64
49122;BME280;35529;44.342;25.944;2022-10-16T09:42:19;101837.84;;;15.56;94.00
49122;BME280;35529;44.342;25.944;2022-10-16T09:44:52;101840.66;;;15.76;95.63
49122;BME280;35529;44.342;25.944;2022-10-16T09:47:26;101838.34;;;16.01;95.42
49122;BME280;35529;44.342;25.944;2022-10-16T09:49:57;101824.56;;;16.11;91.56
49122;BME280;35529;44.342;25.944;2022-10-16T09:52:25;101813.00;;;16.04;91.13
49122;BME280;35529;44.342;25.944;2022-10-16T09:55:08;101825.97;;;16.00;92.29
49122;BME280;35529;44.342;25.944;2022-10-16T09:57:48;101827.88;;;16.06;90.50
49122;BME280;35529;44.342;25.944;2022-10-16T10:00:15;101816.88;;;15.95;90.27
49122;BME280;35529;44.342;25.944;2022-10-16T10:02:42;101821.19;;;15.89;90.11
49122;BME280;35529;44.342;25.944;2022-10-16T10:05:20;101811.63;;;15.80;89.79
49122;BME280;35529;44.342;25.944;2022-10-16T10:07:52;101801.94;;;15.79;91.48
49122;BME280;35529;44.342;25.944;2022-10-16T10:10:21;101810.56;;;16.09;93.43
49122;BME280;35529;44.342;25.944;2022-10-16T10:12:48;101807.31;;;16.27;91.92
49122;BME280;35529;44.342;25.944;2022-10-16T10:15:14;101810.84;;;16.34;90.50
49122;BME280;35529;44.342;25.944;2022-10-16T10:17:48;101806.31;;;16.41;89.44
49122;BME280;35529;44.342;25.944;2022-10-16T10:22:49;101802.25;;;16.72;90.29
49122;BME280;35529;44.342;25.944;2022-10-16T10:25:20;101790.97;;;16.90;90.10
49122;BME280;35529;44.342;25.944;2022-10-16T10:41:12;101790.03;;;16.43;85.41
49122;BME280;35529;44.342;25.944;2022-10-16T10:46:14;101807.50;;;16.25;85.26
49122;BME280;35529;44.342;25.944;2022-10-16T10:49:01;101803.59;;;16.21;85.33
49122;BME280;35529;44.342;25.944;2022-10-16T10:51:39;101797.03;;;16.37;87.62
49122;BME280;35529;44.342;25.944;2022-10-16T10:59:11;101788.06;;;16.99;83.19
49122;BME280;35529;44.342;25.944;2022-10-16T11:07:05;101784.09;;;16.74;84.01
49122;BME280;35529;44.342;25.944;2022-10-16T11:09:38;101782.88;;;16.70;83.04
49122;BME280;35529;44.342;25.944;2022-10-16T11:12:09;101780.38;;;16.75;82.56
49122;BME280;35529;44.342;25.944;2022-10-16T11:14:42;101781.00;;;16.71;83.40
49122;BME280;35529;44.342;25.944;2022-10-16T11:17:18;101772.97;;;16.64;82.67
49122;BME280;35529;44.342;25.944;2022-10-16T11:19:46;101772.53;;;16.67;83.52
49122;BME280;35529;44.342;25.944;2022-10-16T11:22:58;101774.66;;;16.92;84.37
49122;BME280;35529;44.342;25.944;2022-10-16T11:30:01;101770.72;;;17.15;82.88
49122;BME280;35529;44.342;25.944;2022-10-16T11:32:35;101771.31;;;17.03;81.44
49122;BME280;35529;44.342;25.944;2022-10-16T11:35:15;101765.53;;;16.93;83.13
49122;BME280;35529;44.342;25.944;2022-10-16T11:37:44;101767.84;;;16.96;84.12
49122;BME280;35529;44.342;25.944;2022-10-16T11:40:21;101769.28;;;17.12;83.99
49122;BME280;35529;44.342;25.944;2022-10-16T11:43:12;101766.38;;;17.20;82.67
49122;BME280;35529;44.342;25.944;2022-10-16T11:45:39;101765.31;;;17.35;82.44
49122;BME280;35529;44.342;25.944;2022-10-16T11:48:10;101769.84;;;17.28;78.67
49122;BME280;35529;44.342;25.944;2022-10-16T11:50:40;101767.81;;;17.16;78.43
49122;BME280;35529;44.342;25.944;2022-10-16T11:55:54;101772.78;;;17.06;79.75
49122;BME280;35529;44.342;25.944;2022-10-16T12:03:34;101760.78;;;17.22;79.87
49122;BME280;35529;44.342;25.944;2022-10-16T12:08:33;101758.84;;;17.49;80.52
49122;BME280;35529;44.342;25.944;2022-10-16T12:11:07;101755.53;;;17.54;80.43
49122;BME280;35529;44.342;25.944;2022-10-16T12:13:35;101760.28;;;17.58;80.85
49122;BME280;35529;44.342;25.944;2022-10-16T12:16:05;101763.09;;;17.77;80.65
49122;BME280;35529;44.342;25.944;2022-10-16T12:18:32;101754.56;;;17.87;80.38
49122;BME280;35529;44.342;25.944;2022-10-16T12:20:58;101751.69;;;17.95;79.31
49122;BME280;35529;44.342;25.944;2022-10-16T12:23:30;101758.09;;;17.94;78.16
49122;BME280;35529;44.342;25.944;2022-10-16T12:25:58;101759.75;;;17.95;78.69
49122;BME280;35529;44.342;25.944;2022-10-16T12:28:31;101755.19;;;17.96;77.70
49122;BME280;35529;44.342;25.944;2022-10-16T12:31:00;101747.56;;;17.92;77.72
49122;BME280;35529;44.342;25.944;2022-10-16T12:33:28;101758.31;;;17.92;78.50
49122;BME280;35529;44.342;25.944;2022-10-16T12:35:54;101770.88;;;17.99;77.87
49122;BME280;35529;44.342;25.944;2022-10-16T12:38:25;101757.66;;;17.97;77.89
49122;BME280;35529;44.342;25.944;2022-10-16T12:43:35;101773.47;;;17.67;74.21
49122;BME280;35529;44.342;25.944;2022-10-16T12:46:04;101769.56;;;17.56;75.51
49122;BME280;35529;44.342;25.944;2022-10-16T12:48:30;101771.66;;;17.54;74.51
49122;BME280;35529;44.342;25.944;2022-10-16T12:50:57;101778.88;;;17.47;74.98
49122;BME280;35529;44.342;25.944;2022-10-16T12:53:24;101774.38;;;17.40;74.97
49122;BME280;35529;44.342;25.944;2022-10-16T12:58:24;101768.38;;;17.38;74.54
49122;BME280;35529;44.342;25.944;2022-10-16T13:00:57;101771.91;;;17.32;74.33
49122;BME280;35529;44.342;25.944;2022-10-16T13:06:17;101776.00;;;17.55;74.63
49122;BME280;35529;44.342;25.944;2022-10-16T13:08:50;101775.78;;;17.56;73.56
49122;BME280;35529;44.342;25.944;2022-10-16T13:16:43;101776.78;;;17.62;74.66
49122;BME280;35529;44.342;25.944;2022-10-16T13:21:47;101783.63;;;17.58;72.40
49122;BME280;35529;44.342;25.944;2022-10-16T13:24:20;101785.31;;;17.52;72.22
49122;BME280;35529;44.342;25.944;2022-10-16T13:27:34;101780.13;;;17.57;73.18
49122;BME280;35529;44.342;25.944;2022-10-16T13:29:40;101784.59;;;17.70;73.84
49122;BME280;35529;44.342;25.944;2022-10-16T13:32:08;101782.94;;;17.69;70.93
49122;BME280;35529;44.342;25.944;2022-10-16T13:34:42;101775.97;;;17.68;71.43
49122;BME280;35529;44.342;25.944;2022-10-16T13:37:16;101788.31;;;17.69;71.86
49122;BME280;35529;44.342;25.944;2022-10-16T13:40:12;101784.00;;;17.68;71.03
49122;BME280;35529;44.342;25.944;2022-10-16T13:42:44;101786.72;;;17.62;70.17
49122;BME280;35529;44.342;25.944;2022-10-16T13:45:23;101791.88;;;17.63;70.47
49122;BME280;35529;44.342;25.944;2022-10-16T13:47:49;101790.44;;;17.61;70.30
49122;BME280;35529;44.342;25.944;2022-10-16T13:50:16;101792.91;;;17.62;70.33
49122;BME280;35529;44.342;25.944;2022-10-16T13:52:43;101796.84;;;17.59;69.29
49122;BME280;35529;44.342;25.944;2022-10-16T13:55:11;101805.53;;;17.55;68.52
49122;BME280;35529;44.342;25.944;2022-10-16T13:57:41;101796.63;;;17.61;70.79
49122;BME280;35529;44.342;25.944;2022-10-16T14:23:29;101808.25;;;17.35;71.55
49122;BME280;35529;44.342;25.944;2022-10-16T14:28:43;101815.47;;;17.28;72.89
49122;BME280;35529;44.342;25.944;2022-10-16T14:31:23;101820.66;;;17.22;74.99
49122;BME280;35529;44.342;25.944;2022-10-16T14:41:46;101821.50;;;16.96;76.78
49122;BME280;35529;44.342;25.944;2022-10-16T14:44:15;101825.97;;;16.89;77.22
49122;BME280;35529;44.342;25.944;2022-10-16T14:46:54;101828.06;;;16.80;77.57
49122;BME280;35529;44.342;25.944;2022-10-16T14:49:24;101829.88;;;16.73;78.34
49122;BME280;35529;44.342;25.944;2022-10-16T14:51:52;101839.56;;;16.67;78.82
49122;BME280;35529;44.342;25.944;2022-10-16T14:54:19;101844.31;;;16.58;79.67
49122;BME280;35529;44.342;25.944;2022-10-16T14:56:54;101840.38;;;16.48;80.30
49122;BME280;35529;44.342;25.944;2022-10-16T14:59:32;101836.22;;;16.38;81.01
49122;BME280;35529;44.342;25.944;2022-10-16T15:04:48;101834.09;;;16.20;82.68
49122;BME280;35529;44.342;25.944;2022-10-16T15:07:22;101840.03;;;16.09;83.35
49122;BME280;35529;44.342;25.944;2022-10-16T15:10:01;101842.03;;;16.00;84.38
49122;BME280;35529;44.342;25.944;2022-10-16T15:12:30;101847.97;;;15.89;85.02
49122;BME280;35529;44.342;25.944;2022-10-16T15:18:22;101846.38;;;15.66;86.83
49122;BME280;35529;44.342;25.944;2022-10-16T15:21:05;101849.59;;;15.55;87.84
49122;BME280;35529;44.342;25.944;2022-10-16T15:27:10;101853.09;;;15.27;90.51
49122;BME280;35529;44.342;25.944;2022-10-16T15:32:35;101853.91;;;14.99;92.36
49122;BME280;35529;44.342;25.944;2022-10-16T15:35:02;101859.13;;;14.86;93.34
49122;BME280;35529;44.342;25.944;2022-10-16T15:37:28;101857.97;;;14.73;94.73
49122;BME280;35529;44.342;25.944;2022-10-16T15:39:54;101857.63;;;14.62;95.26
49122;BME280;35529;44.342;25.944;2022-10-16T15:42:20;101860.75;;;14.50;96.27
49122;BME280;35529;44.342;25.944;2022-10-16T15:44:46;101864.75;;;14.39;96.63
49122;BME280;35529;44.342;25.944;2022-10-16T15:47:12;101862.56;;;14.28;97.55
49122;BME280;35529;44.342;25.944;2022-10-16T15:49:38;101872.06;;;14.16;98.88
49122;BME280;35529;44.342;25.944;2022-10-16T15:52:07;101879.09;;;14.02;100.00
49122;BME280;35529;44.342;25.944;2022-10-16T15:54:33;101884.72;;;13.92;100.00
49122;BME280;35529;44.342;25.944;2022-10-16T15:56:59;101889.66;;;13.80;100.00
49122;BME280;35529;44.342;25.944;2022-10-16T15:59:26;101894.25;;;13.71;100.00
49122;BME280;35529;44.342;25.944;2022-10-16T16:01:52;101898.84;;;13.63;100.00
49122;BME280;35529;44.342;25.944;2022-10-16T16:04:18;101905.81;;;13.49;100.00
49122;BME280;35529;44.342;25.944;2022-10-16T16:06:44;101912.41;;;13.38;100.00
49122;BME280;35529;44.342;25.944;2022-10-16T16:09:11;101909.13;;;13.28;100.00